createdAt,value
2018-03-24T00:00:39.469Z,19.27
2018-03-24T00:03:05.459Z,20.10
2018-03-24T00:05:31.495Z,20.97
2018-03-24T00:07:57.580Z,19.10
2018-03-24T00:10:23.584Z,20.80
2018-03-24T00:12:49.546Z,19.37
2018-03-24T00:15:15.517Z,20.43
2018-03-24T00:17:41.557Z,19.30
2018-03-24T00:20:07.606Z,19.43
2018-03-24T00:22:33.626Z,21.33
2018-03-24T00:24:59.641Z,22.97
2018-03-24T00:27:25.720Z,19.43
2018-03-24T00:29:51.749Z,21.03
2018-03-24T00:32:17.753Z,22.70
2018-03-24T00:34:43.717Z,21.40
2018-03-24T00:37:09.732Z,21.77
2018-03-24T00:39:35.723Z,19.57
2018-03-24T00:42:01.789Z,22.20
2018-03-24T00:44:27.810Z,22.53
2018-03-24T00:46:53.901Z,20.10
2018-03-24T00:49:19.909Z,20.70
2018-03-24T00:51:45.957Z,21.30
2018-03-24T00:54:12.007Z,19.30
2018-03-24T00:56:38.073Z,19.93
2018-03-24T00:59:04.125Z,19.13
2018-03-24T01:01:30.170Z,20.50
2018-03-24T01:03:56.259Z,18.67
2018-03-24T01:06:22.261Z,18.97
2018-03-24T01:08:48.285Z,18.63
2018-03-24T01:11:14.272Z,20.40
2018-03-24T01:13:40.294Z,18.43
2018-03-24T01:16:06.405Z,18.77
2018-03-24T01:18:32.422Z,17.63
2018-03-24T01:20:58.442Z,17.17
2018-03-24T01:23:24.446Z,18.50
2018-03-24T01:25:50.472Z,19.87
2018-03-24T01:28:16.469Z,17.80
2018-03-24T01:30:42.494Z,20.80
2018-03-24T01:33:08.472Z,19.80
2018-03-24T01:35:34.500Z,17.13
2018-03-24T01:38:00.492Z,19.13
2018-03-24T01:40:27.015Z,17.80
2018-03-24T01:42:53.061Z,19.00
2018-03-24T01:45:19.069Z,19.50
2018-03-24T01:47:45.084Z,20.43
2018-03-24T01:50:11.074Z,18.80
2018-03-24T01:52:37.046Z,20.13
2018-03-24T01:55:03.315Z,20.53
2018-03-24T01:57:29.342Z,18.27
2018-03-24T01:59:55.430Z,18.07
2018-03-24T02:02:21.485Z,18.70
2018-03-24T02:04:47.492Z,20.73
2018-03-24T02:07:13.493Z,19.47
2018-03-24T02:09:39.461Z,20.50
2018-03-24T02:12:05.466Z,21.13
2018-03-24T02:14:31.610Z,18.53
2018-03-24T02:16:58.035Z,18.00
2018-03-24T02:19:24.060Z,17.97
2018-03-24T02:21:50.092Z,17.83
2018-03-24T02:24:16.342Z,19.00
2018-03-24T02:26:42.378Z,18.33
2018-03-24T02:29:08.337Z,19.13
2018-03-24T02:31:34.382Z,18.53
2018-03-24T02:34:00.339Z,17.60
2018-03-24T02:36:26.348Z,17.37
2018-03-24T02:38:52.368Z,17.07
2018-03-24T02:41:18.414Z,13.87
2018-03-24T02:43:44.504Z,16.03
2018-03-24T02:46:10.915Z,16.83
2018-03-24T02:48:36.922Z,15.70
2018-03-24T02:51:02.974Z,16.40
2018-03-24T02:53:29.004Z,17.20
2018-03-24T02:55:55.002Z,15.60
2018-03-24T02:58:21.044Z,15.27
2018-03-24T03:00:47.048Z,14.87
2018-03-24T03:03:13.133Z,16.10
2018-03-24T03:05:39.089Z,18.50
2018-03-24T03:08:05.153Z,15.07
2018-03-24T03:10:31.217Z,17.13
2018-03-24T03:12:57.252Z,15.10
2018-03-24T03:15:23.309Z,15.30
2018-03-24T03:17:49.388Z,17.00
2018-03-24T03:20:15.469Z,15.70
2018-03-24T03:22:41.582Z,16.30
2018-03-24T03:25:07.749Z,15.00
2018-03-24T03:27:33.854Z,16.83
2018-03-24T03:29:59.913Z,14.60
2018-03-24T03:32:26.001Z,17.40
2018-03-24T03:34:52.090Z,16.50
2018-03-24T03:37:18.122Z,16.23
2018-03-24T03:39:44.153Z,17.10
2018-03-24T03:42:10.141Z,16.77
2018-03-24T03:44:36.213Z,15.60
2018-03-24T03:47:02.583Z,16.83
2018-03-24T03:49:28.590Z,16.53
2018-03-24T03:51:54.677Z,16.63
2018-03-24T03:54:20.692Z,16.80
2018-03-24T03:56:46.694Z,15.80
2018-03-24T03:59:12.769Z,16.00
2018-03-24T04:01:38.818Z,15.73
2018-03-24T04:04:04.830Z,15.00
2018-03-24T04:06:31.090Z,19.00
2018-03-24T04:08:57.039Z,15.33
2018-03-24T04:11:23.049Z,17.80
2018-03-24T04:13:49.046Z,16.97
2018-03-24T04:16:15.058Z,17.10
2018-03-24T04:18:41.089Z,14.40
2018-03-24T04:21:07.433Z,14.20
2018-03-24T04:23:33.429Z,17.87
2018-03-24T04:25:59.506Z,16.93
2018-03-24T04:28:25.601Z,16.90
2018-03-24T04:30:51.612Z,14.70
2018-03-24T04:33:17.673Z,16.20
2018-03-24T04:35:43.713Z,15.33
2018-03-24T04:38:09.714Z,14.03
2018-03-24T04:40:35.674Z,15.60
2018-03-24T04:43:01.746Z,15.50
2018-03-24T04:45:28.042Z,16.07
2018-03-24T04:47:54.053Z,19.47
2018-03-24T04:50:20.067Z,20.87
2018-03-24T04:52:46.425Z,17.63
2018-03-24T04:55:12.443Z,19.27
2018-03-24T04:57:38.495Z,22.97
2018-03-24T05:00:04.489Z,19.17
2018-03-24T05:02:30.500Z,23.90
2018-03-24T05:04:56.515Z,23.17
2018-03-24T05:07:22.474Z,19.10
2018-03-24T05:09:48.478Z,21.33
2018-03-24T05:12:14.504Z,20.60
2018-03-24T05:14:40.439Z,21.10
2018-03-24T05:17:06.473Z,24.53
2018-03-24T05:19:32.461Z,26.27
2018-03-24T05:21:58.494Z,26.30
2018-03-24T05:24:24.485Z,25.10
2018-03-24T05:26:50.822Z,24.10
2018-03-24T05:29:16.870Z,20.80
2018-03-24T05:31:42.889Z,24.33
2018-03-24T05:34:08.909Z,24.20
2018-03-24T05:36:34.902Z,24.60
2018-03-24T05:39:00.942Z,23.20
2018-03-24T05:41:26.958Z,20.73
2018-03-24T05:43:53.220Z,21.47
2018-03-24T05:46:19.455Z,23.40
2018-03-24T05:48:45.534Z,23.80
2018-03-24T05:51:11.518Z,18.83
2018-03-24T05:53:37.479Z,23.60
2018-03-24T05:56:03.869Z,21.47
2018-03-24T05:58:30.729Z,20.73
2018-03-24T06:00:57.212Z,21.80
2018-03-24T06:03:23.237Z,25.13
2018-03-24T06:05:49.221Z,24.50
2018-03-24T06:08:15.268Z,22.30
2018-03-24T06:10:41.301Z,21.33
2018-03-24T06:13:07.365Z,25.10
2018-03-24T06:15:33.434Z,25.30
2018-03-24T06:17:59.378Z,22.10
2018-03-24T06:20:25.381Z,21.57
2018-03-24T06:22:51.412Z,23.07
2018-03-24T06:25:17.461Z,22.90
2018-03-24T06:27:43.473Z,24.47
2018-03-24T06:30:12.366Z,24.27
2018-03-24T06:32:38.437Z,21.50
2018-03-24T06:35:04.437Z,21.70
2018-03-24T06:37:30.471Z,22.23
2018-03-24T06:39:56.741Z,21.87
2018-03-24T06:42:22.711Z,22.77
2018-03-24T06:44:48.772Z,23.30
2018-03-24T06:47:14.749Z,19.83
2018-03-24T06:49:40.754Z,22.00
2018-03-24T06:52:06.746Z,18.70
2018-03-24T06:54:32.765Z,21.20
2018-03-24T06:56:58.806Z,18.73
2018-03-24T06:59:24.813Z,19.30
2018-03-24T07:01:50.850Z,21.83
2018-03-24T07:04:16.850Z,18.57
2018-03-24T07:06:42.829Z,18.70
2018-03-24T07:09:08.838Z,17.60
2018-03-24T07:11:34.846Z,17.57
2018-03-24T07:14:00.891Z,16.60
2018-03-24T07:16:26.917Z,14.27
2018-03-24T07:18:52.990Z,15.47
2018-03-24T07:21:19.005Z,15.77
2018-03-24T07:23:45.009Z,16.07
2018-03-24T07:26:11.032Z,16.37
2018-03-24T07:28:37.057Z,14.97
2018-03-24T07:31:03.110Z,17.87
2018-03-24T07:33:29.150Z,19.30
2018-03-24T07:35:55.171Z,17.50
2018-03-24T07:38:21.189Z,18.17
2018-03-24T07:40:47.157Z,19.00
2018-03-24T07:43:13.092Z,17.13
2018-03-24T07:45:39.111Z,16.67
2018-03-24T07:48:05.193Z,18.27
2018-03-24T07:50:31.251Z,20.93
2018-03-24T07:52:57.209Z,20.47
2018-03-24T07:55:23.204Z,19.67
2018-03-24T07:57:49.259Z,20.93
2018-03-24T08:00:15.345Z,19.10
2018-03-24T08:02:41.336Z,18.00
2018-03-24T08:05:07.490Z,19.80
2018-03-24T08:07:33.533Z,19.77
2018-03-24T08:09:59.536Z,17.50
2018-03-24T08:12:25.549Z,19.00
2018-03-24T08:14:51.709Z,18.03
2018-03-24T08:17:17.733Z,14.90
2018-03-24T08:19:43.772Z,15.90
2018-03-24T08:22:09.800Z,15.47
2018-03-24T08:24:35.862Z,16.87
2018-03-24T08:27:01.909Z,16.63
2018-03-24T08:29:27.923Z,15.60
2018-03-24T08:31:53.961Z,14.73
2018-03-24T08:34:19.973Z,15.07
2018-03-24T08:36:46.042Z,14.47
2018-03-24T08:39:12.065Z,15.50
2018-03-24T08:41:38.078Z,13.67
2018-03-24T08:44:04.191Z,14.80
2018-03-24T08:46:30.273Z,14.50
2018-03-24T08:48:56.273Z,17.67
2018-03-24T08:51:22.440Z,15.07
2018-03-24T08:53:48.476Z,15.50
2018-03-24T08:56:14.563Z,14.63
2018-03-24T08:58:40.582Z,14.67
2018-03-24T09:01:06.589Z,14.53
2018-03-24T09:03:32.631Z,13.97
2018-03-24T09:05:58.657Z,15.27
2018-03-24T09:08:24.728Z,14.77
2018-03-24T09:10:50.730Z,12.90
2018-03-24T09:13:16.789Z,13.37
2018-03-24T09:15:42.894Z,13.50
2018-03-24T09:18:08.917Z,13.83
2018-03-24T09:20:34.930Z,13.27
2018-03-24T09:23:01.028Z,10.83
2018-03-24T09:25:27.004Z,13.23
2018-03-24T09:27:53.045Z,14.80
2018-03-24T09:30:19.060Z,14.50
2018-03-24T09:32:45.078Z,14.17
2018-03-24T09:35:11.119Z,12.63
2018-03-24T09:37:37.409Z,11.60
2018-03-24T09:40:03.518Z,11.70
2018-03-24T09:42:29.721Z,12.00
2018-03-24T09:44:55.734Z,12.63
2018-03-24T09:47:21.798Z,10.57
2018-03-24T09:49:47.818Z,9.30
2018-03-24T09:52:13.937Z,7.90
2018-03-24T09:54:39.954Z,9.60
2018-03-24T09:57:06.057Z,10.00
2018-03-24T09:59:32.113Z,9.03
2018-03-24T10:01:58.098Z,7.60
2018-03-24T10:04:24.212Z,8.10
2018-03-24T10:06:50.305Z,8.90
2018-03-24T10:09:16.334Z,10.47
2018-03-24T10:11:42.422Z,11.13
2018-03-24T10:14:08.388Z,9.60
2018-03-24T10:16:34.408Z,8.77
2018-03-24T10:19:00.410Z,10.00
2018-03-24T10:21:47.269Z,10.97
2018-03-24T10:24:28.997Z,11.90
2018-03-24T10:26:55.037Z,14.37
2018-03-24T10:29:21.008Z,14.23
2018-03-24T10:31:47.057Z,15.20
2018-03-24T10:34:13.058Z,14.80
2018-03-24T10:36:39.034Z,14.63
2018-03-24T10:39:05.130Z,14.27
2018-03-24T10:41:31.185Z,13.07
2018-03-24T10:43:57.237Z,15.40
2018-03-24T10:46:23.246Z,13.27
2018-03-24T10:48:49.250Z,16.63
2018-03-24T10:51:15.246Z,14.33
2018-03-24T10:53:41.283Z,15.60
2018-03-24T10:56:07.308Z,15.27
2018-03-24T10:58:33.350Z,14.37
2018-03-24T11:01:05.578Z,14.90
2018-03-24T11:03:31.605Z,13.80
2018-03-24T11:05:57.673Z,13.20
2018-03-24T11:08:23.698Z,12.40
2018-03-24T11:10:49.807Z,11.73
2018-03-24T11:13:15.755Z,13.53
2018-03-24T11:15:41.796Z,13.20
2018-03-24T11:18:07.818Z,14.53
2018-03-24T11:20:34.393Z,15.17
2018-03-24T11:23:00.441Z,14.30
2018-03-24T11:25:26.472Z,13.00
2018-03-24T11:27:52.474Z,13.63
2018-03-24T11:30:18.616Z,13.40
2018-03-24T11:32:44.697Z,14.07
2018-03-24T11:35:10.753Z,13.23
2018-03-24T11:37:36.775Z,11.73
2018-03-24T11:40:02.844Z,12.80
2018-03-24T11:42:28.893Z,13.00
2018-03-24T11:44:54.904Z,12.87
2018-03-24T11:47:21.022Z,13.17
2018-03-24T11:49:47.027Z,13.37
2018-03-24T11:52:13.081Z,13.27
2018-03-24T11:54:43.949Z,17.33
2018-03-24T11:57:09.979Z,16.90
2018-03-24T11:59:36.018Z,16.43
2018-03-24T12:02:02.052Z,16.13
2018-03-24T12:04:28.128Z,18.80
2018-03-24T12:06:54.221Z,18.77
2018-03-24T12:09:20.349Z,14.70
2018-03-24T12:11:46.369Z,15.87
2018-03-24T12:14:12.384Z,16.40
2018-03-24T12:16:38.412Z,16.40
2018-03-24T12:19:04.409Z,19.23
2018-03-24T12:21:30.512Z,16.40
2018-03-24T12:23:56.622Z,17.10
2018-03-24T12:26:22.738Z,19.33
2018-03-24T12:28:48.839Z,17.63
2018-03-24T12:31:14.877Z,18.50
2018-03-24T12:33:40.919Z,18.27
2018-03-24T12:36:06.944Z,17.27
2018-03-24T12:38:32.965Z,19.50
2018-03-24T12:40:58.986Z,20.50
2018-03-24T12:43:24.984Z,19.87
2018-03-24T12:45:51.110Z,18.20
2018-03-24T12:48:17.376Z,18.20
2018-03-24T12:50:43.421Z,18.97
2018-03-24T12:53:09.471Z,19.80
2018-03-24T12:55:35.546Z,18.70
2018-03-24T12:58:02.267Z,20.67
2018-03-24T13:00:28.478Z,20.80
2018-03-24T13:02:54.492Z,18.07
2018-03-24T13:05:20.522Z,19.13
2018-03-24T13:07:46.491Z,17.60
2018-03-24T13:10:12.553Z,19.47
2018-03-24T13:12:38.606Z,17.70
2018-03-24T13:15:04.622Z,19.10
2018-03-24T13:17:30.610Z,18.67
2018-03-24T13:19:56.733Z,18.50
2018-03-24T13:22:22.760Z,18.40
2018-03-24T13:24:48.885Z,18.97
2018-03-24T13:27:14.915Z,17.13
2018-03-24T13:29:40.941Z,17.30
2018-03-24T13:32:06.961Z,18.23
2018-03-24T13:34:32.980Z,16.90
2018-03-24T13:36:59.010Z,17.10
2018-03-24T13:39:25.030Z,15.30
2018-03-24T13:41:51.017Z,19.97
2018-03-24T13:44:17.045Z,17.30
2018-03-24T13:46:43.066Z,17.57
2018-03-24T13:49:09.134Z,17.10
2018-03-24T13:51:35.122Z,13.43
2018-03-24T13:54:01.141Z,17.60
2018-03-24T13:56:27.177Z,15.00
2018-03-24T13:58:53.181Z,13.93
2018-03-24T14:01:19.197Z,14.30
2018-03-24T14:03:45.244Z,14.10
2018-03-24T14:06:11.262Z,12.70
2018-03-24T14:08:37.327Z,13.37
2018-03-24T14:11:03.330Z,13.00
2018-03-24T14:13:29.350Z,13.07
2018-03-24T14:15:55.386Z,12.53
2018-03-24T14:18:21.397Z,12.77
2018-03-24T14:20:47.441Z,15.13
2018-03-24T14:23:13.500Z,13.87
2018-03-24T14:25:39.460Z,13.80
2018-03-24T14:28:05.509Z,12.60
2018-03-24T14:30:31.584Z,14.30
2018-03-24T14:32:57.558Z,14.10
2018-03-24T14:35:23.573Z,15.33
2018-03-24T14:37:49.604Z,15.40
2018-03-24T14:40:15.605Z,14.10
2018-03-24T14:42:41.587Z,15.30
2018-03-24T14:45:07.617Z,15.00
2018-03-24T14:47:33.686Z,14.10
2018-03-24T14:49:59.813Z,13.90
2018-03-24T14:52:25.825Z,13.80
2018-03-24T14:54:51.882Z,13.47
2018-03-24T14:57:17.906Z,14.17
2018-03-24T14:59:43.909Z,12.80
2018-03-24T15:02:10.017Z,13.50
2018-03-24T15:04:36.082Z,14.03
2018-03-24T15:07:02.173Z,15.73
2018-03-24T15:09:28.180Z,13.27
2018-03-24T15:11:54.213Z,14.63
2018-03-24T15:14:20.306Z,13.70
2018-03-24T15:16:46.317Z,14.37
2018-03-24T15:19:12.461Z,15.03
2018-03-24T15:21:38.463Z,14.23
2018-03-24T15:24:04.509Z,14.57
2018-03-24T15:26:30.580Z,14.77
2018-03-24T15:32:14.773Z,14.10
2018-03-24T15:34:53.074Z,14.17
2018-03-24T15:37:19.092Z,15.20
2018-03-24T15:39:45.117Z,15.50
2018-03-24T15:42:11.131Z,15.10
2018-03-24T15:44:37.160Z,13.13
2018-03-24T15:47:03.185Z,12.57
2018-03-24T15:49:29.228Z,13.53
2018-03-24T15:51:55.318Z,15.17
2018-03-24T15:54:21.436Z,15.17
2018-03-24T15:56:47.469Z,16.03
2018-03-24T15:59:13.569Z,14.83
2018-03-24T16:01:39.579Z,14.27
2018-03-24T16:04:05.621Z,14.43
2018-03-24T16:06:31.635Z,13.57
2018-03-24T16:08:57.665Z,14.17
2018-03-24T16:11:23.673Z,15.87
2018-03-24T16:13:49.679Z,16.60
2018-03-24T16:16:15.690Z,16.20
2018-03-24T16:18:41.700Z,15.50
2018-03-24T16:21:07.739Z,16.50
2018-03-24T16:23:33.745Z,14.80
2018-03-24T16:25:59.755Z,16.00
2018-03-24T16:28:25.768Z,17.07
2018-03-24T16:30:51.770Z,15.90
2018-03-24T16:33:17.834Z,17.13
2018-03-24T16:35:43.884Z,15.77
2018-03-24T16:38:09.896Z,16.00
2018-03-24T16:40:35.986Z,15.90
2018-03-24T16:43:02.024Z,17.27
2018-03-24T16:45:27.996Z,16.93
2018-03-24T16:47:54.074Z,19.57
2018-03-24T16:50:20.086Z,20.40
2018-03-24T16:52:46.142Z,20.00
2018-03-24T16:55:12.167Z,17.40
2018-03-24T16:57:38.204Z,15.73
2018-03-24T17:00:04.347Z,16.60
2018-03-24T17:02:30.387Z,17.33
2018-03-24T17:04:56.471Z,14.97
2018-03-24T17:07:22.501Z,15.83
2018-03-24T17:09:48.645Z,15.77
2018-03-24T17:12:14.738Z,17.83
2018-03-24T17:14:40.782Z,17.10
2018-03-24T17:17:06.857Z,15.07
2018-03-24T17:19:32.919Z,14.60
2018-03-24T17:21:58.915Z,15.77
2018-03-24T17:24:25.103Z,14.77
2018-03-24T17:26:51.189Z,17.70
2018-03-24T17:29:17.186Z,17.10
2018-03-24T17:31:43.224Z,15.83
2018-03-24T17:34:09.238Z,16.30
2018-03-24T17:36:35.240Z,17.30
2018-03-24T17:39:01.251Z,17.23
2018-03-24T17:41:27.243Z,16.27
2018-03-24T17:43:53.390Z,17.10
2018-03-24T17:46:19.423Z,20.57
2018-03-24T17:48:45.401Z,19.03
2018-03-24T17:51:11.458Z,19.73
2018-03-24T17:53:37.488Z,18.87
2018-03-24T17:56:03.540Z,20.10
2018-03-24T17:58:30.109Z,20.10
2018-03-24T18:00:56.130Z,20.70
2018-03-24T18:03:22.178Z,20.83
2018-03-24T18:05:48.265Z,20.27
2018-03-24T18:08:14.273Z,20.90
2018-03-24T18:10:40.274Z,19.23
2018-03-24T18:13:06.376Z,19.50
2018-03-24T18:15:32.767Z,20.40
2018-03-24T18:17:58.785Z,20.50
2018-03-24T18:20:24.805Z,19.47
2018-03-24T18:22:50.850Z,19.20
2018-03-24T18:25:16.838Z,20.30
2018-03-24T18:27:42.913Z,20.50
2018-03-24T18:30:08.960Z,19.67
2018-03-24T18:32:34.955Z,19.20
2018-03-24T18:35:01.742Z,23.00
2018-03-24T18:37:27.754Z,23.50
2018-03-24T18:39:53.802Z,22.13
2018-03-24T18:42:19.882Z,22.40
2018-03-24T18:44:45.922Z,19.50
2018-03-24T18:47:11.964Z,22.67
2018-03-24T18:49:38.008Z,25.60
2018-03-24T18:52:04.044Z,21.50
2018-03-24T18:54:30.075Z,23.37
2018-03-24T18:56:56.146Z,22.53
2018-03-24T18:59:22.181Z,22.30
2018-03-24T19:01:48.279Z,22.40
2018-03-24T19:04:14.374Z,23.20
2018-03-24T19:06:40.439Z,21.80
2018-03-24T19:09:06.498Z,21.90
2018-03-24T19:11:32.618Z,21.03
2018-03-24T19:13:58.691Z,19.50
2018-03-24T19:16:24.766Z,20.33
2018-03-24T19:18:50.798Z,21.03
2018-03-24T19:21:16.906Z,20.47
2018-03-24T19:23:42.946Z,19.83
2018-03-24T19:26:08.974Z,20.20
2018-03-24T19:28:35.002Z,20.43
2018-03-24T19:31:01.050Z,21.63
2018-03-24T19:33:27.145Z,19.73
2018-03-24T19:35:53.584Z,21.13
2018-03-24T19:38:19.694Z,19.83
2018-03-24T19:40:45.739Z,20.90
2018-03-24T19:43:11.774Z,18.47
2018-03-24T19:45:37.866Z,20.53
2018-03-24T19:48:03.907Z,20.73
2018-03-24T19:50:29.963Z,18.57
2018-03-24T19:52:56.173Z,21.57
2018-03-24T19:55:22.210Z,21.07
2018-03-24T19:57:48.277Z,21.97
2018-03-24T20:00:14.290Z,23.30
2018-03-24T20:02:40.298Z,22.57
2018-03-24T20:05:06.367Z,24.63
2018-03-24T20:07:32.470Z,22.40
2018-03-24T20:09:58.588Z,21.87
2018-03-24T20:12:32.459Z,24.00
2018-03-24T20:14:58.623Z,23.77
2018-03-24T20:17:24.649Z,23.53
2018-03-24T20:19:50.702Z,24.13
2018-03-24T20:22:16.767Z,21.97
2018-03-24T20:24:42.838Z,22.37
2018-03-24T20:27:08.943Z,22.57
2018-03-24T20:29:35.083Z,21.30
2018-03-24T20:32:01.187Z,23.73
2018-03-24T20:34:27.542Z,22.23
2018-03-24T20:36:53.709Z,22.30
2018-03-24T20:39:19.938Z,23.37
2018-03-24T20:41:45.968Z,22.03
2018-03-24T20:44:12.056Z,24.37
2018-03-24T20:46:38.034Z,24.67
2018-03-24T20:49:04.095Z,21.93
2018-03-24T20:51:30.169Z,26.67
2018-03-24T20:53:56.188Z,27.43
2018-03-24T20:56:22.195Z,27.40
2018-03-24T20:58:48.278Z,29.80
2018-03-24T21:01:14.303Z,38.27
2018-03-24T21:03:40.363Z,40.23
2018-03-24T21:06:06.406Z,54.77
2018-03-24T21:08:32.482Z,39.97
2018-03-24T21:10:58.566Z,39.07
2018-03-24T21:13:24.574Z,47.03
2018-03-24T21:15:50.565Z,38.20
2018-03-24T21:18:16.628Z,43.03
2018-03-24T21:20:42.637Z,52.87
2018-03-24T21:23:08.956Z,42.37
2018-03-24T21:25:35.318Z,37.53
2018-03-24T21:28:01.323Z,28.03
2018-03-24T21:30:27.380Z,31.10
2018-03-24T21:32:53.347Z,25.53
2018-03-24T21:35:19.415Z,30.30
2018-03-24T21:37:45.428Z,29.20
2018-03-24T21:40:11.442Z,32.33
2018-03-24T21:42:37.485Z,35.70
2018-03-24T21:45:03.478Z,44.70
2018-03-24T21:47:29.490Z,36.60
2018-03-24T21:49:55.491Z,30.20
2018-03-24T21:52:21.502Z,31.00
2018-03-24T21:54:47.511Z,25.33
2018-03-24T21:57:13.505Z,24.07
2018-03-24T21:59:39.522Z,25.33
2018-03-24T22:02:05.568Z,21.40
2018-03-24T22:04:31.605Z,22.33
2018-03-24T22:06:57.747Z,22.50
2018-03-24T22:09:23.811Z,25.23
2018-03-24T22:11:49.839Z,22.67
2018-03-24T22:14:15.916Z,22.47
2018-03-24T22:16:42.015Z,23.00
2018-03-24T22:19:08.082Z,20.77
2018-03-24T22:21:34.102Z,19.90
2018-03-24T22:24:00.194Z,18.73
2018-03-24T22:26:26.322Z,21.50
2018-03-24T22:28:52.348Z,20.60
2018-03-24T22:31:18.518Z,21.50
2018-03-24T22:33:44.475Z,19.77
2018-03-24T22:36:10.545Z,18.00
2018-03-24T22:38:36.626Z,21.27
2018-03-24T22:41:02.658Z,23.53
2018-03-24T22:43:28.686Z,22.50
2018-03-24T22:45:54.671Z,24.30
2018-03-24T22:48:20.763Z,21.27
2018-03-24T22:50:46.807Z,19.20
2018-03-24T22:53:12.858Z,17.33
2018-03-24T22:55:38.949Z,20.20
2018-03-24T22:58:05.041Z,19.13
2018-03-24T23:00:31.007Z,17.43
2018-03-24T23:02:57.013Z,19.50
2018-03-24T23:05:23.037Z,19.37
2018-03-24T23:07:49.112Z,17.70
2018-03-24T23:10:15.173Z,17.23
2018-03-24T23:12:41.203Z,18.40
2018-03-24T23:15:07.236Z,18.93
2018-03-24T23:17:33.238Z,19.50
2018-03-24T23:19:59.243Z,18.73
2018-03-24T23:22:25.266Z,19.23
2018-03-24T23:24:51.263Z,16.47
2018-03-24T23:27:17.301Z,20.50
2018-03-24T23:29:43.317Z,22.00
2018-03-24T23:32:09.337Z,19.17
2018-03-24T23:34:35.337Z,19.00
2018-03-24T23:37:01.362Z,22.83
2018-03-24T23:39:27.393Z,19.43
2018-03-24T23:41:53.465Z,18.77
2018-03-24T23:44:19.479Z,18.87
2018-03-24T23:46:45.569Z,21.67
2018-03-24T23:49:11.624Z,24.97
2018-03-24T23:51:37.646Z,26.27
2018-03-24T23:54:03.674Z,19.83
2018-03-24T23:56:29.698Z,18.90
2018-03-24T23:58:55.702Z,20.53
